Time;durP1;ratioP1;P1;durP2;ratioP2;P2;SDS_P1;SDS_P2;PMS_P1;PMS_P2;Temp;Humidity;BMP_temperature;BMP_pressure;BME280_temperature;BME280_humidity;BME280_pressure;Samples;Min_cycle;Max_cycle;Signal;HPM_P1;HPM_P2
2021/10/28 00:14:05;;;;;;;0.90;0.50;;;11.20;99.90;;;;;;5033184;28;20426;-67
2021/10/28 00:16:34;;;;;;;1.13;1.03;;;11.20;99.90;;;;;;5034335;28;20402;-67
2021/10/28 00:19:04;;;;;;;0.90;0.50;;;11.20;99.90;;;;;;5034381;28;20428;-69
2021/10/28 00:21:34;;;;;;;1.50;0.70;;;11.20;99.90;;;;;;5034253;28;20987;-68
2021/10/28 00:24:05;;;;;;;1.33;1.13;;;11.00;99.90;;;;;;5034165;28;20451;-69
2021/10/28 00:26:37;;;;;;;1.03;0.50;;;10.90;99.90;;;;;;5033728;28;20406;-68
2021/10/28 00:29:07;;;;;;;0.90;0.80;;;10.80;99.90;;;;;;5034005;28;20932;-66
2021/10/28 00:31:37;;;;;;;1.43;1.10;;;10.80;99.90;;;;;;5015872;28;20406;-67
2021/10/28 00:34:07;;;;;;;1.37;0.57;;;10.90;99.90;;;;;;5033793;28;20452;-68
2021/10/28 00:36:37;;;;;;;2.40;1.80;;;10.90;99.90;;;;;;5033582;28;20456;-68
2021/10/28 00:39:07;;;;;;;1.50;0.70;;;11.00;99.90;;;;;;5033675;28;20428;-67
2021/10/28 00:41:38;;;;;;;1.43;0.97;;;11.00;99.90;;;;;;5033833;28;20452;-67
2021/10/28 00:44:07;;;;;;;0.80;0.50;;;11.00;99.90;;;;;;5033690;28;20431;-67
2021/10/28 00:46:39;;;;;;;1.00;0.87;;;11.00;99.90;;;;;;5033626;28;20424;-68
2021/10/28 00:49:11;;;;;;;0.90;0.67;;;10.90;99.90;;;;;;5033534;28;20424;-67
2021/10/28 00:51:40;;;;;;;2.23;0.87;;;10.80;99.90;;;;;;5033689;28;20423;-68
2021/10/28 00:54:12;;;;;;;1.00;0.60;;;10.80;99.90;;;;;;5033486;28;20412;-68
2021/10/28 00:56:43;;;;;;;1.17;0.70;;;10.70;99.90;;;;;;5033618;28;20413;-68
2021/10/28 00:59:12;;;;;;;1.00;0.90;;;10.70;99.90;;;;;;5034177;28;20432;-68
2021/10/28 01:01:40;;;;;;;0.90;0.50;;;10.60;99.90;;;;;;5033323;28;20438;-67
2021/10/28 01:04:09;;;;;;;2.10;0.90;;;10.50;99.90;;;;;;5033568;28;20420;-68
2021/10/28 01:06:39;;;;;;;0.87;0.67;;;10.50;99.90;;;;;;5033310;28;20882;-68
2021/10/28 01:09:08;;;;;;;0.93;0.63;;;10.50;99.90;;;;;;5033369;28;20905;-68
2021/10/28 01:11:36;;;;;;;1.03;0.70;;;10.50;99.90;;;;;;5033780;28;20936;-67
2021/10/28 01:14:06;;;;;;;1.40;0.90;;;10.40;99.90;;;;;;5033188;28;20428;-68
2021/10/28 01:16:34;;;;;;;1.07;0.90;;;10.40;99.90;;;;;;5033550;28;20795;-67
2021/10/28 01:19:03;;;;;;;0.90;0.50;;;10.30;99.90;;;;;;5037275;28;20424;-68
2021/10/28 01:21:33;;;;;;;0.80;0.60;;;10.30;99.90;;;;;;5036415;28;20478;-67
2021/10/28 01:24:01;;;;;;;1.10;0.80;;;10.40;99.90;;;;;;5033345;28;20419;-68
2021/10/28 01:26:29;;;;;;;1.57;0.80;;;10.40;99.90;;;;;;5033342;28;20724;-67
2021/10/28 01:28:59;;;;;;;0.90;0.60;;;10.40;99.90;;;;;;5033556;28;20431;-69
2021/10/28 01:31:30;;;;;;;2.00;1.10;;;10.40;99.90;;;;;;5015499;28;20436;-67
2021/10/28 01:34:01;;;;;;;4.73;1.03;;;10.40;99.90;;;;;;5033501;28;20467;-67
2021/10/28 01:36:29;;;;;;;1.30;0.80;;;10.50;99.90;;;;;;5033379;28;20436;-70
2021/10/28 01:38:59;;;;;;;0.90;0.50;;;10.60;99.90;;;;;;5033051;28;20424;-67
2021/10/28 01:41:30;;;;;;;3.23;0.87;;;10.60;99.90;;;;;;5032801;28;21063;-68
2021/10/28 01:43:58;;;;;;;1.20;1.10;;;10.60;99.90;;;;;;5032617;28;20420;-69
2021/10/28 01:46:26;;;;;;;1.10;0.70;;;10.50;99.90;;;;;;5032453;28;20462;-68
2021/10/28 01:48:54;;;;;;;1.90;0.80;;;10.40;99.90;;;;;;5032817;28;20448;-69
2021/10/28 01:51:24;;;;;;;4.93;0.87;;;10.40;99.90;;;;;;5032473;28;20413;-69
2021/10/28 01:53:54;;;;;;;1.27;0.67;;;10.50;99.90;;;;;;5032266;28;20971;-67
2021/10/28 01:56:23;;;;;;;1.00;0.80;;;10.50;99.90;;;;;;5014049;28;20436;-68
2021/10/28 01:58:52;;;;;;;2.10;1.17;;;10.50;99.90;;;;;;5032328;28;20413;-69
2021/10/28 02:01:20;;;;;;;1.00;0.60;;;10.60;99.90;;;;;;5032016;28;20912;-69
2021/10/28 02:03:49;;;;;;;1.93;0.90;;;10.70;99.90;;;;;;5032106;28;21044;-68
2021/10/28 02:06:17;;;;;;;1.00;0.90;;;10.60;99.90;;;;;;5031931;28;20803;-68
2021/10/28 02:08:45;;;;;;;3.00;1.10;;;10.60;99.90;;;;;;5032178;28;20419;-67
2021/10/28 02:11:13;;;;;;;1.50;0.97;;;10.50;99.90;;;;;;5032247;28;20420;-66
2021/10/28 02:13:42;;;;;;;1.10;0.60;;;10.50;99.90;;;;;;5032605;28;20798;-65
2021/10/28 02:16:11;;;;;;;1.63;0.70;;;10.40;99.90;;;;;;5032734;28;20450;-68
2021/10/28 02:18:39;;;;;;;2.27;0.97;;;10.30;99.90;;;;;;5032844;28;20893;-68
2021/10/28 02:21:07;;;;;;;1.20;1.00;;;10.20;99.90;;;;;;5032466;28;20436;-69
2021/10/28 02:23:35;;;;;;;1.23;0.93;;;10.00;99.90;;;;;;5032054;28;20476;-66
2021/10/28 02:26:03;;;;;;;1.03;0.70;;;9.90;99.90;;;;;;5033071;28;20405;-66
2021/10/28 02:28:32;;;;;;;3.43;0.80;;;9.80;99.90;;;;;;5032190;28;20827;-67
2021/10/28 02:31:02;;;;;;;1.93;1.83;;;9.70;99.90;;;;;;5032557;28;20416;-67
2021/10/28 02:33:31;;;;;;;1.30;0.70;;;9.50;99.90;;;;;;5031662;28;20494;-68
2021/10/28 02:35:59;;;;;;;1.30;0.90;;;9.40;99.90;;;;;;5031011;28;20471;-68
2021/10/28 02:38:27;;;;;;;0.90;0.70;;;9.30;99.90;;;;;;5031641;28;20424;-67
2021/10/28 02:40:55;;;;;;;0.90;0.60;;;9.40;99.90;;;;;;5031807;28;20503;-67
2021/10/28 02:43:23;;;;;;;1.47;1.30;;;9.30;99.90;;;;;;5031523;28;20608;-67
2021/10/28 02:45:51;;;;;;;1.87;0.90;;;9.20;99.90;;;;;;5031604;28;20423;-69
2021/10/28 02:48:21;;;;;;;3.13;1.03;;;9.10;99.90;;;;;;5031442;28;20519;-69
2021/10/28 02:50:49;;;;;;;1.93;1.43;;;9.20;99.90;;;;;;5031415;28;20416;-68
2021/10/28 02:53:17;;;;;;;1.93;1.43;;;9.20;99.90;;;;;;5031259;28;20440;-69
2021/10/28 02:55:46;;;;;;;1.13;0.87;;;9.20;99.90;;;;;;5013611;28;20447;-67
2021/10/28 02:58:14;;;;;;;1.40;0.97;;;9.10;99.90;;;;;;5031607;28;20419;-67
2021/10/28 03:00:43;;;;;;;2.10;1.07;;;9.10;99.90;;;;;;5031723;28;20380;-67
2021/10/28 03:03:12;;;;;;;1.60;1.50;;;9.10;99.90;;;;;;5031643;28;20468;-67
2021/10/28 03:05:41;;;;;;;1.37;1.27;;;9.00;99.90;;;;;;5031494;28;20239;-68
2021/10/28 03:08:09;;;;;;;1.15;0.75;;;9.00;99.90;;;;;;5031061;28;20425;-67
2021/10/28 03:10:38;;;;;;;1.10;1.00;;;8.90;99.90;;;;;;5031541;28;20524;-67
2021/10/28 03:13:07;;;;;;;1.60;1.27;;;8.90;99.90;;;;;;5031127;28;20201;-68
2021/10/28 03:15:36;;;;;;;1.35;1.25;;;8.90;99.90;;;;;;5013644;28;20450;-68
2021/10/28 03:19:08;;;;;;;2.97;1.58;;;8.80;99.90;;;;;;5031452;28;20665;-67
2021/10/28 03:26:43;;;;;;;0.87;0.50;;;8.80;99.90;;;;;;5013488;28;20196;-67
2021/10/28 03:29:11;;;;;;;1.60;1.50;;;8.80;99.90;;;;;;5031869;28;20823;-66
2021/10/28 03:31:39;;;;;;;0.98;0.88;;;8.80;99.90;;;;;;5013617;28;20680;-66
2021/10/28 03:34:07;;;;;;;2.75;1.08;;;8.80;99.90;;;;;;5031208;28;20213;-69
2021/10/28 03:36:44;;;;;;;1.42;0.77;;;8.70;99.90;;;;;;5055295;23;20250;-66
2021/10/28 03:39:23;;;;;;;1.10;0.85;;;8.70;99.90;;;;;;5045179;28;20197;-67
2021/10/28 03:42:09;;;;;;;1.35;1.15;;;8.70;99.90;;;;;;5050900;28;20274;-66
2021/10/28 04:07:46;;;;;;;2.10;1.30;;;8.50;99.90;;;;;;5054197;28;20271;-65
2021/10/28 04:18:53;;;;;;;1.90;1.13;;;8.50;99.90;;;;;;5054496;28;20199;-68
2021/10/28 04:21:36;;;;;;;1.05;0.80;;;8.40;99.90;;;;;;5054003;28;20195;-67
2021/10/28 04:29:49;;;;;;;1.35;0.80;;;8.50;99.90;;;;;;4973127;28;20226;-65
2021/10/28 04:32:17;;;;;;;2.13;1.10;;;8.40;99.90;;;;;;5035372;28;20217;-65
2021/10/28 04:34:45;;;;;;;1.00;0.70;;;8.30;99.90;;;;;;5053854;28;20590;-66
2021/10/28 04:37:13;;;;;;;1.00;0.73;;;8.30;99.90;;;;;;5053709;28;20226;-66
2021/10/28 04:39:42;;;;;;;1.63;0.70;;;8.30;99.90;;;;;;5053815;28;20199;-66
2021/10/28 04:42:12;;;;;;;1.58;1.48;;;8.30;99.90;;;;;;5053699;28;20215;-66
2021/10/28 04:44:41;;;;;;;1.60;1.50;;;8.30;99.90;;;;;;5053508;28;20224;-66
2021/10/28 04:47:09;;;;;;;1.00;0.50;;;8.30;99.90;;;;;;5053488;28;20177;-66
2021/10/28 04:49:37;;;;;;;2.97;1.08;;;8.20;99.90;;;;;;5053513;28;20185;-67
2021/10/28 04:52:06;;;;;;;1.35;1.25;;;8.30;99.90;;;;;;5053449;28;20217;-67
2021/10/28 04:54:34;;;;;;;1.67;1.17;;;8.20;99.90;;;;;;5053278;28;20665;-67
2021/10/28 04:57:03;;;;;;;1.63;1.52;;;8.10;99.90;;;;;;5053242;28;20196;-67
2021/10/28 04:59:32;;;;;;;0.80;0.60;;;8.30;99.90;;;;;;5052665;28;20580;-65
2021/10/28 05:02:05;;;;;;;1.10;0.90;;;8.20;99.90;;;;;;5053593;28;20286;-67
2021/10/28 05:04:34;;;;;;;1.52;1.00;;;8.30;99.90;;;;;;5035524;28;20213;-66
2021/10/28 05:07:02;;;;;;;1.98;0.82;;;8.30;99.90;;;;;;5053473;28;20189;-66
2021/10/28 05:09:32;;;;;;;2.55;0.98;;;8.20;99.90;;;;;;5053035;28;20546;-66
2021/10/28 05:12:01;;;;;;;1.30;1.05;;;8.30;99.90;;;;;;5052930;28;20212;-67
2021/10/28 05:14:29;;;;;;;1.88;0.80;;;8.30;99.90;;;;;;5053184;28;20180;-68
2021/10/28 05:16:58;;;;;;;2.15;1.95;;;8.30;99.90;;;;;;5044523;28;20280;-66
2021/10/28 05:19:28;;;;;;;2.25;1.20;;;8.30;99.90;;;;;;5035659;28;20593;-65
2021/10/28 05:21:56;;;;;;;1.00;0.82;;;8.40;99.90;;;;;;5036054;28;20619;-66
2021/10/28 05:24:25;;;;;;;1.17;0.82;;;8.40;99.90;;;;;;5043921;28;20220;-67
2021/10/28 05:26:55;;;;;;;2.05;0.98;;;8.40;99.90;;;;;;5040717;28;20196;-68
2021/10/28 05:29:23;;;;;;;0.90;0.60;;;8.40;99.90;;;;;;5046010;28;20676;-67
2021/10/28 05:31:52;;;;;;;1.25;1.15;;;8.40;99.90;;;;;;5032821;28;20459;-66
2021/10/28 05:34:22;;;;;;;1.42;1.00;;;8.30;99.90;;;;;;5033185;28;20234;-67
2021/10/28 05:36:50;;;;;;;7.53;1.50;;;8.30;99.90;;;;;;5032287;28;20193;-66
2021/10/28 05:39:19;;;;;;;0.80;0.50;;;8.30;99.90;;;;;;5040772;28;20706;-66
2021/10/28 05:41:47;;;;;;;0.90;0.70;;;8.20;99.90;;;;;;5052378;28;20668;-67
2021/10/28 05:44:16;;;;;;;0.80;0.50;;;8.30;99.90;;;;;;5052405;28;20212;-67
2021/10/28 05:46:44;;;;;;;0.90;0.70;;;8.20;99.90;;;;;;5050204;28;20193;-66
2021/10/28 05:49:12;;;;;;;1.35;1.25;;;8.20;99.90;;;;;;5032338;28;20198;-66
2021/10/28 05:51:42;;;;;;;1.23;0.80;;;8.20;99.90;;;;;;5032223;28;20193;-67
2021/10/28 05:54:10;;;;;;;0.90;0.75;;;8.20;99.90;;;;;;5032413;28;20247;-67
2021/10/28 05:56:39;;;;;;;1.45;0.93;;;8.10;99.90;;;;;;5032433;28;20688;-67
2021/10/28 05:59:07;;;;;;;1.33;1.23;;;8.20;99.90;;;;;;5032568;28;20200;-67
2021/10/28 06:01:35;;;;;;;0.85;0.52;;;8.10;99.90;;;;;;5023112;28;20713;-67
2021/10/28 06:04:06;;;;;;;1.52;0.70;;;8.20;99.90;;;;;;5052830;28;20208;-67
2021/10/28 06:06:35;;;;;;;1.17;1.08;;;8.10;99.90;;;;;;5053023;28;20189;-65
2021/10/28 06:09:04;;;;;;;3.83;0.63;;;8.10;99.90;;;;;;5053299;28;20173;-66
2021/10/28 06:11:32;;;;;;;0.90;0.68;;;8.20;99.90;;;;;;5052056;28;20472;-66
2021/10/28 06:14:00;;;;;;;1.58;1.10;;;8.20;99.90;;;;;;5053313;28;20429;-66
2021/10/28 06:16:29;;;;;;;1.13;1.02;;;8.20;99.90;;;;;;5052242;28;20181;-65
2021/10/28 06:18:57;;;;;;;1.50;1.40;;;8.20;99.90;;;;;;5051717;28;20189;-65
2021/10/28 06:21:26;;;;;;;0.90;0.60;;;8.20;99.90;;;;;;5050612;28;20558;-67
2021/10/28 06:23:55;;;;;;;0.95;0.85;;;8.30;99.90;;;;;;5031784;28;20670;-67
2021/10/28 06:26:26;;;;;;;3.92;1.58;;;8.30;99.90;;;;;;5032055;28;20193;-66
2021/10/28 06:28:54;;;;;;;1.20;0.80;;;8.30;99.90;;;;;;5031663;28;20197;-66
2021/10/28 06:31:22;;;;;;;1.85;0.93;;;8.30;99.90;;;;;;5046534;28;20212;-66
2021/10/28 06:33:56;;;;;;;0.95;0.70;;;8.40;99.90;;;;;;5050907;28;20200;-67
2021/10/28 06:36:25;;;;;;;1.58;0.93;;;8.50;99.90;;;;;;5044283;28;20205;-66
2021/10/28 06:38:54;;;;;;;0.88;0.70;;;8.40;99.90;;;;;;5031540;28;20677;-65
2021/10/28 06:41:23;;;;;;;2.55;1.08;;;8.40;99.90;;;;;;5031907;28;20562;-65
2021/10/28 06:43:51;;;;;;;3.22;1.88;;;8.50;99.90;;;;;;5036648;28;20259;-66
2021/10/28 06:46:19;;;;;;;1.48;0.90;;;8.50;99.90;;;;;;5051069;28;20204;-65
2021/10/28 06:48:47;;;;;;;1.63;1.30;;;8.50;99.90;;;;;;5051382;28;20330;-67
2021/10/28 06:51:16;;;;;;;0.90;0.70;;;8.60;99.90;;;;;;5051272;28;20235;-66
2021/10/28 06:53:54;;;;;;;1.67;1.58;;;8.60;99.90;;;;;;5050887;28;20220;-67
2021/10/28 06:56:53;;;;;;;2.45;1.10;;;8.70;99.90;;;;;;5038844;28;20271;-67
2021/10/28 07:04:57;;;;;;;1.33;0.73;;;9.00;99.90;;;;;;5045902;28;20561;-66
2021/10/28 07:07:26;;;;;;;1.80;0.90;;;9.00;99.90;;;;;;5041952;28;20464;-68
2021/10/28 07:10:05;;;;;;;1.97;1.87;;;9.10;99.90;;;;;;5031204;28;20197;-68
2021/10/28 07:12:49;;;;;;;1.65;1.55;;;9.00;99.90;;;;;;5030816;28;20443;-67
2021/10/28 07:15:21;;;;;;;3.97;2.03;;;9.10;99.90;;;;;;5030731;28;20274;-67
2021/10/28 07:18:16;;;;;;;0.93;0.80;;;9.20;99.90;;;;;;5030864;28;20424;-67
2021/10/28 07:21:20;;;;;;;1.20;0.90;;;9.20;99.90;;;;;;5031083;28;20420;-67
2021/10/28 07:26:44;;;;;;;2.57;1.40;;;9.50;99.90;;;;;;5033497;28;20834;-66
2021/10/28 08:06:05;;;;;;;1.60;1.50;;;10.50;99.90;;;;;;5053317;28;20517;-67
2021/10/28 08:19:47;;;;;;;2.30;1.67;;;10.60;99.90;;;;;;5019007;28;20404;-66
2021/10/28 08:22:20;;;;;;;1.60;1.23;;;10.60;99.90;;;;;;5053747;28;20530;-68
2021/10/28 08:30:25;;;;;;;1.20;0.97;;;11.00;99.90;;;;;;5054157;28;20455;-65
2021/10/28 08:32:55;;;;;;;2.13;1.70;;;11.00;99.90;;;;;;5041271;28;20984;-66
2021/10/28 08:35:51;;;;;;;1.77;1.63;;;11.20;99.90;;;;;;5033343;28;20436;-65
2021/10/28 08:38:20;;;;;;;3.73;1.80;;;11.30;99.90;;;;;;5033700;28;20776;-67
2021/10/28 08:40:51;;;;;;;3.77;0.90;;;11.30;99.90;;;;;;5033691;28;20417;-65
2021/10/28 08:43:20;;;;;;;6.57;2.00;;;11.40;99.90;;;;;;5037792;28;20458;-68
2021/10/28 08:45:52;;;;;;;0.80;0.50;;;11.50;99.90;;;;;;5034759;28;20463;-68
2021/10/28 08:48:23;;;;;;;0.90;0.53;;;11.50;99.90;;;;;;5013740;28;20427;-66
2021/10/28 08:51:03;;;;;;;1.33;1.23;;;11.50;99.90;;;;;;5013639;28;20989;-67
2021/10/28 08:53:55;;;;;;;1.43;1.33;;;11.50;99.90;;;;;;5017851;28;20534;-67
2021/10/28 08:56:36;;;;;;;1.10;0.70;;;11.60;99.90;;;;;;5013454;28;20889;-67
2021/10/28 08:59:29;;;;;;;2.70;0.73;;;11.70;99.90;;;;;;5013509;28;20421;-68
2021/10/28 09:25:05;;;;;;;3.53;1.90;;;12.60;99.90;;;;;;5006294;28;20421;-66
2021/10/28 09:27:44;;;;;;;1.10;0.60;;;12.50;99.90;;;;;;5025536;28;20444;-65
2021/10/28 09:30:20;;;;;;;2.27;1.30;;;12.60;99.90;;;;;;5033093;28;20969;-67
2021/10/28 09:32:51;;;;;;;2.00;1.60;;;12.70;99.90;;;;;;5032601;28;20443;-65
2021/10/28 09:45:06;;;;;;;0.90;0.60;;;12.90;99.90;;;;;;5012690;28;20483;-65
2021/10/28 09:47:41;;;;;;;2.50;0.90;;;12.90;99.90;;;;;;5012585;28;20413;-63
2021/10/28 09:50:14;;;;;;;1.30;1.03;;;13.10;99.90;;;;;;5011318;28;20443;-62
2021/10/28 09:52:53;;;;;;;3.87;3.57;;;13.30;99.90;;;;;;5012534;28;20452;-65
2021/10/28 09:58:26;;;;;;;2.40;1.83;;;13.40;99.90;;;;;;4951464;29;20454;-62
2021/10/28 10:00:56;;;;;;;2.77;2.23;;;13.70;99.90;;;;;;4951940;29;20468;-65
2021/10/28 10:03:27;;;;;;;2.47;1.00;;;13.70;99.90;;;;;;4972376;28;20600;-63
2021/10/28 10:05:59;;;;;;;1.70;1.40;;;13.70;99.90;;;;;;4993175;28;20439;-63
2021/10/28 10:08:28;;;;;;;2.00;1.80;;;13.70;99.90;;;;;;4992781;28;20412;-63
2021/10/28 10:10:58;;;;;;;1.00;0.90;;;13.90;99.90;;;;;;4992666;28;20406;-64
2021/10/28 10:13:29;;;;;;;2.80;2.23;;;14.00;99.90;;;;;;4992400;28;20412;-63
2021/10/28 10:16:00;;;;;;;4.80;3.70;;;14.10;99.90;;;;;;4992319;28;20969;-63
2021/10/28 10:18:30;;;;;;;2.33;1.10;;;14.30;99.90;;;;;;4992446;28;20428;-61
2021/10/28 10:21:02;;;;;;;4.77;2.50;;;14.20;99.90;;;;;;4992326;28;20393;-64
2021/10/28 10:23:38;;;;;;;4.57;3.43;;;14.30;99.90;;;;;;5008063;28;20862;-64
2021/10/28 10:26:33;;;;;;;1.67;1.27;;;14.40;99.90;;;;;;5011659;28;20900;-64
2021/10/28 11:28:31;;;;;;;1.30;0.97;;;14.90;99.90;;;;;;5011285;28;20401;-62
2021/10/28 11:31:26;;;;;;;1.47;1.37;;;15.00;99.90;;;;;;5011209;28;20403;-65
2021/10/28 12:25:43;;;;;;;2.17;1.37;;;16.20;99.90;;;;;;4988179;28;20475;-63
2021/10/28 12:29:00;;;;;;;2.17;1.73;;;16.20;99.90;;;;;;5016433;28;20417;-61
2021/10/28 12:45:36;;;;;;;2.57;2.30;;;16.40;99.90;;;;;;5013973;28;20812;-62
2021/10/28 12:51:02;;;;;;;1.60;1.20;;;16.40;99.90;;;;;;5001746;28;20948;-63
2021/10/28 12:53:48;;;;;;;1.17;1.00;;;16.40;99.90;;;;;;5013885;28;20436;-64
2021/10/28 12:56:25;;;;;;;3.03;1.63;;;16.40;99.90;;;;;;5014215;28;20454;-63
2021/10/28 13:02:23;;;;;;;2.33;0.97;;;16.30;99.90;;;;;;5033524;28;20402;-62
2021/10/28 13:35:56;;;;;;;2.10;1.60;;;16.60;99.90;;;;;;5012767;28;20486;-65
2021/10/28 13:49:50;;;;;;;2.53;1.10;;;16.50;99.90;;;;;;5012450;28;20466;-63
2021/10/28 13:52:36;;;;;;;1.77;0.90;;;16.50;99.90;;;;;;5009044;28;20850;-63
2021/10/28 13:55:52;;;;;;;1.00;0.73;;;16.40;99.90;;;;;;4992446;28;20384;-64
2021/10/28 13:58:32;;;;;;;2.90;2.20;;;16.50;99.90;;;;;;4991761;28;20407;-63
2021/10/28 15:29:54;;;;;;;2.30;1.37;;;14.60;99.90;;;;;;5011752;28;20825;-61
2021/10/28 15:35:29;;;;;;;0.80;0.50;;;14.40;99.90;;;;;;5011741;28;20399;-64
2021/10/28 15:38:08;;;;;;;1.60;1.37;;;14.20;99.90;;;;;;5087745;22;20472;-68
2021/10/28 15:40:50;;;;;;;1.97;1.30;;;14.10;99.90;;;;;;5073718;28;20404;-66
2021/10/28 15:57:29;;;;;;;1.77;0.97;;;13.50;99.90;;;;;;5074386;28;20472;-67
2021/10/28 16:00:18;;;;;;;1.00;0.90;;;13.40;99.90;;;;;;5074559;28;20430;-67
2021/10/28 16:22:08;;;;;;;2.43;2.20;;;13.10;99.90;;;;;;5064099;28;20446;-68
2021/10/28 16:24:36;;;;;;;1.30;1.10;;;13.00;99.90;;;;;;5059265;28;20472;-69
2021/10/28 16:27:05;;;;;;;2.40;1.37;;;12.90;99.90;;;;;;5056786;28;20757;-67
2021/10/28 16:29:34;;;;;;;1.93;1.30;;;12.90;99.90;;;;;;5054490;28;20407;-67
2021/10/28 16:32:02;;;;;;;2.73;2.53;;;12.80;99.90;;;;;;5054463;28;20451;-68
2021/10/28 16:34:30;;;;;;;2.13;1.50;;;12.70;99.90;;;;;;5054508;28;20386;-68
2021/10/28 16:36:59;;;;;;;2.00;1.07;;;12.70;99.90;;;;;;5054010;28;20435;-67
2021/10/28 16:39:34;;;;;;;1.17;0.80;;;12.70;99.90;;;;;;5054374;28;20469;-67
2021/10/28 16:42:02;;;;;;;2.47;1.40;;;12.70;99.90;;;;;;5036611;28;20516;-68
2021/10/28 16:44:31;;;;;;;2.40;1.47;;;12.60;99.90;;;;;;5054060;28;20403;-67
2021/10/28 16:46:59;;;;;;;1.37;1.20;;;12.60;99.90;;;;;;5036032;28;20446;-68
2021/10/28 16:49:27;;;;;;;1.13;1.03;;;12.60;99.90;;;;;;5061871;28;20561;-68
2021/10/28 16:51:55;;;;;;;1.50;1.10;;;12.60;99.90;;;;;;5060794;28;20919;-68
2021/10/28 16:54:26;;;;;;;1.47;1.33;;;12.60;99.90;;;;;;5060315;28;20507;-67
2021/10/28 16:56:55;;;;;;;2.17;1.97;;;12.60;99.90;;;;;;5071372;28;20415;-67
2021/10/28 16:59:25;;;;;;;2.23;1.40;;;12.50;99.90;;;;;;5074449;28;20911;-69
2021/10/28 17:01:54;;;;;;;3.87;1.40;;;12.50;99.90;;;;;;5074715;28;20449;-68
2021/10/28 17:04:23;;;;;;;1.50;1.40;;;12.40;99.90;;;;;;5056926;28;20410;-66
2021/10/28 17:06:52;;;;;;;1.30;1.00;;;12.40;99.90;;;;;;5076319;28;20471;-66
2021/10/28 17:09:20;;;;;;;3.43;1.60;;;12.40;99.90;;;;;;5074492;28;20645;-65
2021/10/28 17:11:50;;;;;;;6.00;3.30;;;12.40;99.90;;;;;;5074374;28;20413;-67
2021/10/28 17:14:19;;;;;;;1.63;1.53;;;12.20;99.90;;;;;;5057161;28;20750;-66
2021/10/28 17:16:47;;;;;;;1.97;1.00;;;12.10;99.90;;;;;;5074859;28;20418;-67
2021/10/28 17:19:18;;;;;;;2.70;2.30;;;12.10;99.90;;;;;;5074689;28;20413;-67
2021/10/28 17:21:46;;;;;;;2.67;1.70;;;12.00;99.90;;;;;;5074197;28;20407;-66
2021/10/28 17:24:24;;;;;;;2.93;2.70;;;12.00;99.90;;;;;;5073874;28;20813;-66
2021/10/28 17:26:56;;;;;;;2.63;2.43;;;12.00;99.90;;;;;;5073768;28;20945;-66
2021/10/28 17:29:26;;;;;;;3.33;1.87;;;11.90;99.90;;;;;;5074377;28;20465;-67
2021/10/28 17:31:56;;;;;;;2.00;1.33;;;11.90;99.90;;;;;;5074190;28;20438;-66
2021/10/28 17:34:25;;;;;;;2.57;1.77;;;11.90;99.90;;;;;;5074052;28;20979;-67
2021/10/28 17:36:53;;;;;;;1.40;1.27;;;12.00;99.90;;;;;;5073505;28;20445;-68
2021/10/28 17:39:22;;;;;;;2.10;1.73;;;12.00;99.90;;;;;;5074486;28;20415;-67
2021/10/28 17:41:52;;;;;;;4.63;3.17;;;12.00;99.90;;;;;;5073739;28;20431;-67
2021/10/28 17:44:23;;;;;;;1.10;0.80;;;12.00;99.90;;;;;;5059249;28;20446;-66
2021/10/28 17:46:53;;;;;;;2.27;1.87;;;12.00;99.90;;;;;;5076769;28;20407;-67
2021/10/28 17:49:21;;;;;;;2.53;2.37;;;11.90;99.90;;;;;;5075421;28;20453;-65
2021/10/28 17:51:49;;;;;;;1.10;0.73;;;11.80;99.90;;;;;;5080301;28;20515;-67
2021/10/28 17:54:17;;;;;;;1.90;1.60;;;11.90;99.90;;;;;;5080745;28;20510;-67
2021/10/28 17:56:46;;;;;;;1.30;1.20;;;11.80;99.90;;;;;;5081201;28;20399;-67
2021/10/28 17:59:14;;;;;;;2.50;1.00;;;11.80;99.90;;;;;;5060886;28;20441;-68
2021/10/28 18:01:42;;;;;;;3.03;1.30;;;11.90;99.90;;;;;;5079134;28;20393;-67
2021/10/28 18:04:12;;;;;;;1.13;0.97;;;11.90;99.90;;;;;;5081455;28;20821;-67
2021/10/28 18:06:40;;;;;;;0.90;0.60;;;11.80;99.90;;;;;;5081237;28;20385;-68
2021/10/28 18:09:09;;;;;;;2.20;1.43;;;11.80;99.90;;;;;;5080934;28;20439;-66
2021/10/28 18:11:37;;;;;;;1.20;0.73;;;11.90;99.90;;;;;;5075950;28;20476;-68
2021/10/28 18:14:11;;;;;;;3.40;2.70;;;11.80;99.90;;;;;;5073112;28;20740;-68
2021/10/28 18:16:40;;;;;;;1.10;0.93;;;11.70;99.90;;;;;;5074003;28;20480;-67
2021/10/28 18:19:09;;;;;;;2.13;1.30;;;11.60;99.90;;;;;;5071365;28;20453;-67
2021/10/28 18:21:42;;;;;;;2.87;1.50;;;11.70;99.90;;;;;;5071594;28;20397;-68
2021/10/28 18:24:11;;;;;;;2.10;1.30;;;11.60;99.90;;;;;;5073037;28;20430;-68
2021/10/28 18:26:40;;;;;;;3.37;1.33;;;11.50;99.90;;;;;;5072282;28;20595;-69
2021/10/28 18:29:08;;;;;;;1.60;1.27;;;11.40;99.90;;;;;;5071983;28;20790;-67
2021/10/28 18:31:36;;;;;;;1.70;1.10;;;11.30;99.90;;;;;;5054307;28;20435;-66
2021/10/28 18:34:05;;;;;;;1.53;1.17;;;11.30;99.90;;;;;;5072518;28;20480;-66
2021/10/28 18:36:36;;;;;;;1.67;1.00;;;11.30;99.90;;;;;;5072302;28;20419;-68
2021/10/28 18:39:08;;;;;;;2.87;1.63;;;11.40;99.90;;;;;;5072199;28;20426;-68
2021/10/28 18:41:36;;;;;;;1.97;1.87;;;11.40;99.90;;;;;;5054337;28;21162;-68
2021/10/28 18:44:05;;;;;;;2.47;1.83;;;11.40;99.90;;;;;;5072158;28;20407;-67
2021/10/28 18:46:34;;;;;;;3.13;1.10;;;11.40;99.90;;;;;;5071713;28;20460;-68
2021/10/28 18:49:03;;;;;;;3.50;2.33;;;11.40;99.90;;;;;;5071373;28;20534;-67
2021/10/28 18:51:37;;;;;;;1.50;1.20;;;11.50;99.90;;;;;;5071797;28;20758;-67
2021/10/28 18:54:06;;;;;;;1.20;1.07;;;11.40;99.90;;;;;;5071576;28;20529;-68
2021/10/28 18:56:35;;;;;;;2.47;2.27;;;11.40;99.90;;;;;;5071794;28;20408;-65
2021/10/28 18:59:04;;;;;;;1.57;1.47;;;11.30;99.90;;;;;;5071498;28;20503;-66
2021/10/28 19:01:32;;;;;;;1.27;0.97;;;11.20;99.90;;;;;;5070849;28;20425;-66
2021/10/28 19:04:00;;;;;;;0.87;0.60;;;11.30;99.90;;;;;;5069505;28;20472;-66
2021/10/28 19:06:29;;;;;;;2.60;0.80;;;11.30;99.90;;;;;;5071654;28;20385;-67
2021/10/28 19:08:57;;;;;;;1.73;1.60;;;11.30;99.90;;;;;;5071193;28;20432;-67
2021/10/28 19:11:27;;;;;;;1.40;1.10;;;11.30;99.90;;;;;;5071871;28;20510;-68
2021/10/28 19:13:56;;;;;;;2.23;1.20;;;11.20;99.90;;;;;;5071333;28;20422;-66
2021/10/28 19:16:24;;;;;;;1.43;1.13;;;11.10;99.90;;;;;;5071199;28;20400;-68
2021/10/28 19:18:54;;;;;;;3.60;1.67;;;11.10;99.90;;;;;;5065596;28;20427;-67
2021/10/28 19:21:23;;;;;;;1.37;1.27;;;11.10;99.90;;;;;;5058007;28;20938;-67
2021/10/28 19:23:55;;;;;;;2.50;1.43;;;11.00;99.90;;;;;;5058258;28;20461;-67
2021/10/28 19:26:24;;;;;;;3.67;1.73;;;10.90;99.90;;;;;;5057949;28;20438;-68
2021/10/28 19:28:54;;;;;;;2.40;0.80;;;10.90;99.90;;;;;;5040059;28;20417;-67
2021/10/28 19:31:24;;;;;;;1.10;0.90;;;10.80;99.90;;;;;;5059944;28;20407;-67
2021/10/28 19:33:54;;;;;;;1.30;1.00;;;10.70;99.90;;;;;;5079034;28;20438;-67
2021/10/28 19:36:31;;;;;;;1.10;0.80;;;10.60;99.90;;;;;;5045362;28;20850;-67
2021/10/28 19:39:20;;;;;;;1.40;1.30;;;10.50;99.90;;;;;;5059266;28;20427;-67
2021/10/28 19:45:14;;;;;;;3.33;1.63;;;10.40;99.90;;;;;;5016888;28;20758;-68
2021/10/28 19:47:42;;;;;;;1.47;1.00;;;10.30;99.90;;;;;;4996686;28;20529;-67
2021/10/28 19:50:12;;;;;;;1.27;1.03;;;10.30;99.90;;;;;;5037535;28;20475;-65
2021/10/28 19:52:41;;;;;;;5.93;2.30;;;10.20;99.90;;;;;;5059882;28;20446;-66
2021/10/28 19:55:10;;;;;;;1.00;0.70;;;10.20;99.90;;;;;;5061312;28;20434;-66
2021/10/28 19:57:42;;;;;;;2.50;1.63;;;10.20;99.90;;;;;;5062403;28;20418;-65
2021/10/28 20:00:19;;;;;;;1.87;1.77;;;10.20;99.90;;;;;;5062790;28;20399;-67
2021/10/28 20:05:52;;;;;;;1.60;1.10;;;10.20;99.90;;;;;;5063614;28;20485;-66
2021/10/28 20:13:59;;;;;;;1.10;0.90;;;10.20;99.90;;;;;;5078397;28;20413;-65
2021/10/28 20:22:00;;;;;;;1.37;1.13;;;10.20;99.90;;;;;;5058169;28;21138;-68
2021/10/28 20:24:29;;;;;;;1.47;1.37;;;10.10;99.90;;;;;;5039843;28;20430;-65
2021/10/28 20:26:57;;;;;;;2.53;1.60;;;10.10;99.90;;;;;;5040244;28;20427;-67
2021/10/28 20:29:25;;;;;;;2.10;1.13;;;10.10;99.90;;;;;;5038326;28;20497;-66
2021/10/28 20:31:55;;;;;;;1.97;1.20;;;10.10;99.90;;;;;;5058180;28;20473;-66
2021/10/28 20:34:29;;;;;;;2.00;1.73;;;10.00;99.90;;;;;;5039866;28;20424;-67
2021/10/28 20:37:07;;;;;;;2.70;1.67;;;10.00;99.90;;;;;;5057224;28;20430;-67
2021/10/28 20:39:38;;;;;;;1.80;1.13;;;10.00;99.90;;;;;;5057634;28;20420;-65
2021/10/28 20:42:07;;;;;;;1.00;0.90;;;10.00;99.90;;;;;;5054418;28;20442;-65
2021/10/28 20:44:36;;;;;;;1.13;1.00;;;10.00;99.90;;;;;;5036326;28;20435;-67
2021/10/28 20:47:06;;;;;;;1.67;1.57;;;10.00;99.90;;;;;;5054201;28;20489;-67
2021/10/28 20:49:34;;;;;;;1.00;0.80;;;9.90;99.90;;;;;;5056037;28;20981;-67
2021/10/28 20:52:03;;;;;;;2.80;1.87;;;9.90;99.90;;;;;;5074178;28;20795;-66
2021/10/28 20:54:31;;;;;;;1.10;0.83;;;9.90;99.90;;;;;;5074210;28;20420;-66
2021/10/28 20:57:02;;;;;;;1.87;0.90;;;9.90;99.90;;;;;;5073832;28;20453;-65
2021/10/28 20:59:31;;;;;;;1.30;1.10;;;9.80;99.90;;;;;;5073999;28;20453;-67
2021/10/28 21:02:00;;;;;;;1.60;1.50;;;9.80;99.90;;;;;;5073688;28;20446;-67